sensor_id;sensor_type;location;lat;lon;timestamp;pressure;altitude;pressure_sealevel;temperature;humidity
27980;BME280;15315;50.836;4.430;2023-03-13T00:01:45;99808.06;;;12.37;100.00
27980;BME280;15315;50.836;4.430;2023-03-13T00:11:46;99820.19;;;12.43;100.00
27980;BME280;15315;50.836;4.430;2023-03-13T00:21:46;99799.66;;;12.02;100.00
27980;BME280;15315;50.836;4.430;2023-03-13T00:31:47;99773.81;;;12.57;100.00
27980;BME280;15315;50.836;4.430;2023-03-13T00:41:47;99743.78;;;12.31;100.00
27980;BME280;15315;50.836;4.430;2023-03-13T00:51:48;99746.19;;;12.44;100.00
27980;BME280;15315;50.836;4.430;2023-03-13T01:01:48;99731.69;;;11.97;100.00
27980;BME280;15315;50.836;4.430;2023-03-13T01:11:49;99709.50;;;12.22;100.00
27980;BME280;15315;50.836;4.430;2023-03-13T01:21:49;99700.38;;;12.61;100.00
27980;BME280;15315;50.836;4.430;2023-03-13T01:31:49;99691.31;;;12.99;100.00
27980;BME280;15315;50.836;4.430;2023-03-13T01:41:50;99659.25;;;13.04;100.00
27980;BME280;15315;50.836;4.430;2023-03-13T01:51:54;99613.13;;;13.23;100.00
27980;BME280;15315;50.836;4.430;2023-03-13T02:01:59;99603.25;;;13.14;100.00
27980;BME280;15315;50.836;4.430;2023-03-13T02:12:04;99573.28;;;13.60;100.00
27980;BME280;15315;50.836;4.430;2023-03-13T02:32:26;99582.31;;;13.51;100.00
27980;BME280;15315;50.836;4.430;2023-03-13T02:42:27;99571.47;;;13.51;100.00
27980;BME280;15315;50.836;4.430;2023-03-13T02:52:31;99569.88;;;12.96;100.00
27980;BME280;15315;50.836;4.430;2023-03-13T03:02:37;99563.25;;;13.71;100.00
27980;BME280;15315;50.836;4.430;2023-03-13T03:12:37;99544.22;;;13.18;100.00
27980;BME280;15315;50.836;4.430;2023-03-13T03:22:38;99532.19;;;13.83;100.00
27980;BME280;15315;50.836;4.430;2023-03-13T03:32:39;99524.38;;;13.80;100.00
27980;BME280;15315;50.836;4.430;2023-03-13T03:42:40;99508.19;;;13.88;100.00
27980;BME280;15315;50.836;4.430;2023-03-13T03:52:40;99494.16;;;13.92;100.00
27980;BME280;15315;50.836;4.430;2023-03-13T04:02:41;99495.50;;;14.14;100.00
27980;BME280;15315;50.836;4.430;2023-03-13T04:12:42;99477.34;;;14.14;100.00
27980;BME280;15315;50.836;4.430;2023-03-13T04:22:42;99454.06;;;14.30;100.00
27980;BME280;15315;50.836;4.430;2023-03-13T04:32:43;99483.50;;;14.50;100.00
27980;BME280;15315;50.836;4.430;2023-03-13T04:42:43;99473.97;;;14.12;100.00
27980;BME280;15315;50.836;4.430;2023-03-13T04:52:44;99483.94;;;14.12;100.00
27980;BME280;15315;50.836;4.430;2023-03-13T05:02:44;99473.13;;;14.46;100.00
27980;BME280;15315;50.836;4.430;2023-03-13T05:12:45;99465.63;;;14.73;100.00
27980;BME280;15315;50.836;4.430;2023-03-13T05:22:45;99474.34;;;15.01;100.00
27980;BME280;15315;50.836;4.430;2023-03-13T05:32:45;99462.16;;;14.55;100.00
27980;BME280;15315;50.836;4.430;2023-03-13T05:42:46;99447.31;;;14.34;100.00
27980;BME280;15315;50.836;4.430;2023-03-13T05:52:46;99433.22;;;14.30;100.00
27980;BME280;15315;50.836;4.430;2023-03-13T06:02:47;99421.47;;;14.55;100.00
27980;BME280;15315;50.836;4.430;2023-03-13T06:12:54;99409.97;;;14.53;100.00
27980;BME280;15315;50.836;4.430;2023-03-13T06:22:55;99398.66;;;14.32;100.00
27980;BME280;15315;50.836;4.430;2023-03-13T06:32:56;99407.75;;;14.49;100.00
27980;BME280;15315;50.836;4.430;2023-03-13T06:42:57;99396.63;;;14.26;100.00
27980;BME280;15315;50.836;4.430;2023-03-13T06:52:58;99398.34;;;14.35;100.00
27980;BME280;15315;50.836;4.430;2023-03-13T07:02:58;99405.16;;;14.39;100.00
27980;BME280;15315;50.836;4.430;2023-03-13T07:12:58;99373.38;;;14.73;100.00
27980;BME280;15315;50.836;4.430;2023-03-13T07:22:59;99389.84;;;14.80;100.00
27980;BME280;15315;50.836;4.430;2023-03-13T07:32:59;99382.59;;;15.05;100.00
27980;BME280;15315;50.836;4.430;2023-03-13T07:42:59;99397.34;;;15.10;100.00
27980;BME280;15315;50.836;4.430;2023-03-13T07:53:00;99395.66;;;15.25;100.00
27980;BME280;15315;50.836;4.430;2023-03-13T08:03:00;99387.50;;;14.93;100.00
27980;BME280;15315;50.836;4.430;2023-03-13T08:13:01;99398.00;;;14.80;100.00
27980;BME280;15315;50.836;4.430;2023-03-13T08:23:01;99398.59;;;14.50;100.00
27980;BME280;15315;50.836;4.430;2023-03-13T08:33:02;99390.22;;;15.50;100.00
27980;BME280;15315;50.836;4.430;2023-03-13T08:43:02;99378.97;;;15.85;100.00
27980;BME280;15315;50.836;4.430;2023-03-13T08:53:02;99366.97;;;14.91;100.00
27980;BME280;15315;50.836;4.430;2023-03-13T09:03:03;99360.88;;;15.13;100.00
27980;BME280;15315;50.836;4.430;2023-03-13T09:13:03;99342.63;;;15.78;100.00
27980;BME280;15315;50.836;4.430;2023-03-13T09:23:04;99331.41;;;16.20;100.00
27980;BME280;15315;50.836;4.430;2023-03-13T09:33:04;99325.06;;;17.11;100.00
27980;BME280;15315;50.836;4.430;2023-03-13T09:43:19;99315.09;;;16.81;100.00
27980;BME280;15315;50.836;4.430;2023-03-13T09:53:32;99295.06;;;16.21;100.00
27980;BME280;15315;50.836;4.430;2023-03-13T10:03:52;99287.94;;;16.50;100.00
27980;BME280;15315;50.836;4.430;2023-03-13T10:14:05;99268.84;;;17.18;100.00
27980;BME280;15315;50.836;4.430;2023-03-13T10:24:22;99273.66;;;17.46;100.00
27980;BME280;15315;50.836;4.430;2023-03-13T10:34:29;99257.00;;;17.11;100.00
27980;BME280;15315;50.836;4.430;2023-03-13T10:44:43;99248.38;;;16.62;100.00
27980;BME280;15315;50.836;4.430;2023-03-13T10:54:44;99220.13;;;17.01;100.00
27980;BME280;15315;50.836;4.430;2023-03-13T11:04:44;99241.63;;;17.77;100.00
27980;BME280;15315;50.836;4.430;2023-03-13T11:14:56;99203.72;;;16.94;100.00
27980;BME280;15315;50.836;4.430;2023-03-13T11:35:50;99204.28;;;18.28;95.60
27980;BME280;15315;50.836;4.430;2023-03-13T12:06:35;99126.13;;;17.63;95.07
27980;BME280;15315;50.836;4.430;2023-03-13T12:16:58;99113.66;;;18.32;95.01
27980;BME280;15315;50.836;4.430;2023-03-13T12:27:17;99108.75;;;18.49;92.25
27980;BME280;15315;50.836;4.430;2023-03-13T13:08:24;99078.53;;;19.12;82.41
27980;BME280;15315;50.836;4.430;2023-03-13T13:18:27;99057.06;;;19.03;81.90
27980;BME280;15315;50.836;4.430;2023-03-13T13:28:33;99046.50;;;18.31;79.52
27980;BME280;15315;50.836;4.430;2023-03-13T13:38:36;99021.00;;;19.14;77.16
27980;BME280;15315;50.836;4.430;2023-03-13T13:48:39;99019.31;;;18.17;71.44
27980;BME280;15315;50.836;4.430;2023-03-13T13:58:42;99007.59;;;17.74;73.54
27980;BME280;15315;50.836;4.430;2023-03-13T14:08:45;98981.53;;;18.14;71.89
27980;BME280;15315;50.836;4.430;2023-03-13T14:18:47;98968.06;;;17.84;73.12
27980;BME280;15315;50.836;4.430;2023-03-13T14:28:52;98964.16;;;17.93;70.97
27980;BME280;15315;50.836;4.430;2023-03-13T14:38:57;98941.97;;;17.97;72.57
27980;BME280;15315;50.836;4.430;2023-03-13T14:49:15;98914.00;;;17.88;71.84
27980;BME280;15315;50.836;4.430;2023-03-13T14:59:23;98886.00;;;18.01;69.43
27980;BME280;15315;50.836;4.430;2023-03-13T15:09:25;98853.66;;;18.38;67.83
27980;BME280;15315;50.836;4.430;2023-03-13T15:19:26;98851.47;;;18.14;66.82
27980;BME280;15315;50.836;4.430;2023-03-13T15:29:26;98825.75;;;18.84;66.46
27980;BME280;15315;50.836;4.430;2023-03-13T15:39:27;98820.00;;;18.18;66.04
27980;BME280;15315;50.836;4.430;2023-03-13T15:49:28;98817.97;;;18.27;64.42
27980;BME280;15315;50.836;4.430;2023-03-13T15:59:28;98791.03;;;18.11;64.43
27980;BME280;15315;50.836;4.430;2023-03-13T16:09:29;98771.84;;;18.45;64.75
27980;BME280;15315;50.836;4.430;2023-03-13T16:19:29;98774.88;;;17.41;68.82
27980;BME280;15315;50.836;4.430;2023-03-13T16:29:30;98752.44;;;17.73;67.98
27980;BME280;15315;50.836;4.430;2023-03-13T16:39:30;98743.91;;;18.36;65.35
27980;BME280;15315;50.836;4.430;2023-03-13T16:49:30;98739.44;;;18.09;64.89
27980;BME280;15315;50.836;4.430;2023-03-13T16:59:31;98722.88;;;18.17;64.90
27980;BME280;15315;50.836;4.430;2023-03-13T17:09:31;98722.53;;;18.40;64.54
27980;BME280;15315;50.836;4.430;2023-03-13T17:19:32;98716.31;;;18.72;63.26
27980;BME280;15315;50.836;4.430;2023-03-13T17:29:33;98700.97;;;17.98;64.85
27980;BME280;15315;50.836;4.430;2023-03-13T17:39:33;98697.22;;;17.92;66.92
27980;BME280;15315;50.836;4.430;2023-03-13T17:49:33;98683.59;;;17.99;67.20
27980;BME280;15315;50.836;4.430;2023-03-13T17:59:34;98686.00;;;17.74;68.82
27980;BME280;15315;50.836;4.430;2023-03-13T18:09:34;98678.59;;;17.61;70.46
27980;BME280;15315;50.836;4.430;2023-03-13T18:19:35;98657.19;;;16.41;77.85
27980;BME280;15315;50.836;4.430;2023-03-13T18:29:35;98664.28;;;17.12;78.04
27980;BME280;15315;50.836;4.430;2023-03-13T18:39:35;98654.66;;;16.88;83.16
27980;BME280;15315;50.836;4.430;2023-03-13T18:49:36;98638.47;;;16.52;88.77
27980;BME280;15315;50.836;4.430;2023-03-13T18:59:36;98633.03;;;16.10;96.56
27980;BME280;15315;50.836;4.430;2023-03-13T19:09:36;98623.31;;;16.01;98.62
27980;BME280;15315;50.836;4.430;2023-03-13T19:19:37;98625.59;;;15.83;100.00
27980;BME280;15315;50.836;4.430;2023-03-13T19:29:37;98618.69;;;15.44;100.00
27980;BME280;15315;50.836;4.430;2023-03-13T19:39:37;98617.88;;;15.65;100.00
27980;BME280;15315;50.836;4.430;2023-03-13T19:49:38;98620.38;;;15.81;100.00
27980;BME280;15315;50.836;4.430;2023-03-13T19:59:38;98606.66;;;15.68;100.00
27980;BME280;15315;50.836;4.430;2023-03-13T20:09:39;98608.41;;;14.96;100.00
27980;BME280;15315;50.836;4.430;2023-03-13T20:19:39;98634.75;;;14.73;100.00
27980;BME280;15315;50.836;4.430;2023-03-13T20:29:40;98632.94;;;15.03;100.00
27980;BME280;15315;50.836;4.430;2023-03-13T20:39:40;98617.97;;;15.21;100.00
27980;BME280;15315;50.836;4.430;2023-03-13T20:49:41;98597.47;;;14.75;100.00
27980;BME280;15315;50.836;4.430;2023-03-13T20:59:41;98550.41;;;14.82;100.00
27980;BME280;15315;50.836;4.430;2023-03-13T21:09:41;98558.91;;;14.94;100.00
27980;BME280;15315;50.836;4.430;2023-03-13T21:19:42;98560.78;;;14.79;100.00
27980;BME280;15315;50.836;4.430;2023-03-13T21:29:43;98579.38;;;15.11;100.00
27980;BME280;15315;50.836;4.430;2023-03-13T21:39:51;98589.59;;;15.09;100.00
27980;BME280;15315;50.836;4.430;2023-03-13T21:49:52;98583.31;;;15.74;100.00
27980;BME280;15315;50.836;4.430;2023-03-13T21:59:53;98569.81;;;15.30;100.00
27980;BME280;15315;50.836;4.430;2023-03-13T22:09:53;98587.81;;;15.02;100.00
27980;BME280;15315;50.836;4.430;2023-03-13T22:19:54;98596.03;;;14.27;100.00
27980;BME280;15315;50.836;4.430;2023-03-13T22:29:54;98601.31;;;14.43;100.00
27980;BME280;15315;50.836;4.430;2023-03-13T22:39:56;98594.63;;;14.54;92.65
27980;BME280;15315;50.836;4.430;2023-03-13T22:49:56;98594.25;;;14.57;88.62
27980;BME280;15315;50.836;4.430;2023-03-13T22:59:57;98598.28;;;15.19;83.53
27980;BME280;15315;50.836;4.430;2023-03-13T23:10:00;98601.94;;;14.68;83.73
27980;BME280;15315;50.836;4.430;2023-03-13T23:20:03;98595.81;;;14.14;90.52
27980;BME280;15315;50.836;4.430;2023-03-13T23:30:14;98587.53;;;14.30;87.73
27980;BME280;15315;50.836;4.430;2023-03-13T23:40:15;98576.13;;;13.97;89.41
27980;BME280;15315;50.836;4.430;2023-03-13T23:50:15;98607.47;;;13.69;90.85
